createdAt,value
2018-11-05T00:02:18.515Z,36.75
2018-11-05T00:05:12.226Z,36.08
2018-11-05T00:08:06.471Z,37.00
2018-11-05T00:11:18.162Z,36.65
2018-11-05T00:14:12.540Z,36.77
2018-11-05T00:17:09.086Z,41.95
2018-11-05T00:20:02.869Z,41.23
2018-11-05T00:22:56.908Z,38.98
2018-11-05T00:25:51.227Z,39.73
2018-11-05T00:28:44.676Z,40.40
2018-11-05T00:31:38.418Z,45.23
2018-11-05T00:34:32.440Z,44.48
2018-11-05T00:37:26.003Z,47.88
2018-11-05T00:40:19.816Z,45.17
2018-11-05T00:43:13.443Z,44.42
2018-11-05T00:46:07.111Z,42.93
2018-11-05T00:49:01.148Z,44.40
2018-11-05T00:51:54.876Z,44.53
2018-11-05T00:54:49.123Z,51.75
2018-11-05T00:57:43.183Z,51.98
2018-11-05T01:00:37.225Z,50.43
2018-11-05T01:03:31.298Z,53.98
2018-11-05T01:06:28.031Z,51.73
2018-11-05T01:09:21.700Z,52.55
2018-11-05T01:12:21.726Z,58.95
2018-11-05T01:15:15.198Z,51.45
2018-11-05T01:18:08.854Z,50.80
2018-11-05T01:21:02.538Z,48.45
2018-11-05T01:23:56.436Z,52.95
2018-11-05T01:26:50.291Z,52.27
2018-11-05T01:29:44.209Z,54.10
2018-11-05T01:32:37.846Z,52.83
2018-11-05T01:35:31.699Z,61.63
2018-11-05T01:38:25.604Z,62.05
2018-11-05T01:41:19.074Z,63.45
2018-11-05T01:44:13.235Z,56.10
2018-11-05T01:47:07.516Z,64.05
2018-11-05T01:50:01.742Z,57.80
2018-11-05T01:52:56.190Z,63.08
2018-11-05T01:55:50.569Z,57.43
2018-11-05T01:58:44.147Z,56.65
2018-11-05T02:01:38.225Z,59.10
2018-11-05T02:04:32.309Z,58.13
2018-11-05T02:07:26.182Z,55.90
2018-11-05T02:10:21.086Z,55.38
2018-11-05T02:13:15.112Z,54.63
2018-11-05T02:16:08.935Z,54.45
2018-11-05T02:19:02.707Z,53.70
2018-11-05T02:21:56.450Z,54.15
2018-11-05T02:25:07.047Z,54.38
2018-11-05T02:28:01.130Z,52.60
2018-11-05T02:30:55.414Z,53.95
2018-11-05T02:33:49.283Z,54.80
2018-11-05T02:36:43.064Z,55.25
2018-11-05T02:39:37.337Z,53.20
2018-11-05T02:42:31.769Z,55.50
2018-11-05T02:45:25.501Z,53.25
2018-11-05T02:48:19.270Z,53.38
2018-11-05T02:51:15.604Z,61.08
2018-11-05T02:54:18.450Z,55.75
2018-11-05T02:57:12.337Z,54.25
2018-11-05T03:00:05.874Z,55.98
2018-11-05T03:02:59.701Z,58.05
2018-11-05T03:05:53.711Z,58.55
2018-11-05T03:08:48.066Z,60.03
2018-11-05T03:11:44.413Z,56.80
2018-11-05T03:14:38.226Z,56.58
2018-11-05T03:17:32.268Z,55.80
2018-11-05T03:20:26.654Z,59.93
2018-11-05T03:23:21.330Z,61.28
2018-11-05T03:26:17.687Z,65.20
2018-11-05T03:29:11.824Z,63.15
2018-11-05T03:32:06.052Z,60.38
2018-11-05T03:35:00.517Z,65.30
2018-11-05T03:37:54.400Z,65.00
2018-11-05T03:40:48.139Z,62.03
2018-11-05T03:43:41.814Z,61.70
2018-11-05T03:46:36.965Z,67.70
2018-11-05T03:49:32.540Z,65.37
2018-11-05T03:52:26.600Z,66.62
2018-11-05T03:55:21.077Z,65.60
2018-11-05T03:58:18.140Z,67.80
2018-11-05T04:01:08.802Z,67.15
2018-11-05T04:04:02.199Z,62.98
2018-11-05T04:06:55.837Z,65.65
2018-11-05T04:09:49.837Z,64.25
2018-11-05T04:12:46.409Z,64.75
2018-11-05T04:15:43.063Z,63.05
2018-11-05T04:18:39.527Z,62.88
2018-11-05T04:21:45.679Z,61.35
2018-11-05T04:24:39.776Z,62.75
2018-11-05T04:27:33.347Z,59.08
2018-11-05T04:30:27.507Z,61.35
2018-11-05T04:33:25.372Z,59.27
2018-11-05T04:36:22.325Z,59.83
2018-11-05T04:39:22.436Z,58.98
2018-11-05T04:42:13.983Z,59.35
2018-11-05T04:45:09.269Z,59.15
2018-11-05T04:48:06.121Z,58.30
2018-11-05T04:51:00.725Z,56.28
2018-11-05T04:53:58.173Z,56.18
2018-11-05T04:56:56.370Z,55.12
2018-11-05T04:59:51.010Z,54.60
2018-11-05T05:03:22.446Z,57.35
2018-11-05T05:06:37.785Z,51.23
2018-11-05T05:09:36.038Z,48.83
2018-11-05T05:12:32.259Z,44.53
2018-11-05T05:15:27.459Z,42.93
2018-11-05T05:18:21.813Z,42.98
2018-11-05T05:21:23.964Z,38.65
2018-11-05T05:27:01.376Z,51.90
2018-11-05T05:29:55.946Z,43.02
2018-11-05T05:32:51.984Z,39.23
2018-11-05T05:35:47.084Z,36.50
2018-11-05T05:38:52.057Z,34.75
2018-11-05T05:41:46.965Z,33.78
2018-11-05T05:44:55.871Z,31.60
2018-11-05T05:47:47.749Z,29.48
2018-11-05T05:50:46.699Z,29.05
2018-11-05T05:53:45.705Z,28.65
2018-11-05T05:56:44.483Z,29.18
2018-11-05T05:59:44.082Z,29.77
2018-11-05T06:02:42.063Z,29.80
2018-11-05T06:05:40.678Z,28.85
2018-11-05T06:08:38.371Z,26.80
2018-11-05T06:11:36.780Z,27.07
2018-11-05T06:14:44.240Z,26.77
2018-11-05T06:17:35.166Z,25.37
2018-11-05T06:20:32.498Z,25.85
2018-11-05T06:23:41.012Z,24.45
2018-11-05T06:26:37.003Z,25.48
2018-11-05T06:29:37.085Z,24.60
2018-11-05T06:32:37.223Z,26.25
2018-11-05T06:35:37.050Z,26.85
2018-11-05T06:42:05.162Z,25.88
2018-11-05T06:45:03.408Z,27.02
2018-11-05T06:48:01.401Z,27.15
2018-11-05T06:50:57.115Z,27.62
2018-11-05T06:53:52.332Z,27.55
2018-11-05T06:56:50.680Z,24.90
2018-11-05T06:59:51.708Z,25.32
2018-11-05T07:02:49.241Z,24.35
2018-11-05T07:05:52.686Z,26.37
2018-11-05T07:09:08.720Z,28.23
2018-11-05T07:12:26.356Z,27.90
2018-11-05T07:15:18.261Z,27.85
2018-11-05T07:18:23.141Z,26.75
2018-11-05T07:21:23.496Z,26.93
2018-11-05T07:24:23.657Z,26.48
2018-11-05T07:27:19.951Z,26.17
2018-11-05T07:30:32.814Z,27.00
2018-11-05T07:33:31.956Z,25.88
2018-11-05T07:36:30.979Z,25.08
2018-11-05T07:39:27.225Z,24.85
2018-11-05T07:42:28.857Z,25.60
2018-11-05T07:45:28.485Z,25.25
2018-11-05T07:48:31.155Z,25.92
2018-11-05T07:51:30.604Z,28.05
2018-11-05T07:54:33.147Z,28.87
2018-11-05T07:57:34.969Z,28.55
2018-11-05T08:00:48.802Z,27.60
2018-11-05T08:03:48.054Z,28.38
2018-11-05T08:06:41.962Z,28.05
2018-11-05T08:09:41.971Z,29.60
2018-11-05T08:12:47.369Z,29.12
2018-11-05T08:15:50.837Z,28.95
2018-11-05T08:18:52.911Z,31.15
2018-11-05T08:21:54.927Z,30.65
2018-11-05T08:24:58.747Z,28.85
2018-11-05T08:28:02.167Z,29.15
2018-11-05T08:31:14.240Z,30.52
2018-11-05T08:34:17.195Z,28.85
2018-11-05T08:37:18.624Z,30.20
2018-11-05T08:40:24.404Z,29.80
2018-11-05T08:43:29.580Z,29.30
2018-11-05T08:46:32.159Z,28.57
2018-11-05T08:49:33.258Z,30.75
2018-11-05T08:52:36.943Z,29.48
2018-11-05T08:55:49.300Z,27.50
2018-11-05T08:58:47.751Z,28.12
2018-11-05T09:01:47.284Z,28.90
2018-11-05T09:04:53.143Z,28.45
2018-11-05T09:07:56.373Z,29.80
2018-11-05T09:10:56.998Z,31.87
2018-11-05T09:14:03.283Z,29.02
2018-11-05T09:17:03.736Z,27.87
2018-11-05T09:20:02.876Z,27.00
2018-11-05T09:23:00.787Z,28.15
2018-11-05T09:26:01.425Z,27.73
2018-11-05T09:29:01.442Z,26.82
2018-11-05T09:31:58.716Z,27.10
2018-11-05T09:35:09.670Z,26.85
2018-11-05T09:38:03.535Z,28.35
2018-11-05T09:41:02.780Z,28.83
2018-11-05T09:44:04.840Z,28.15
2018-11-05T09:47:06.869Z,28.57
2018-11-05T09:50:06.447Z,28.00
2018-11-05T09:53:05.783Z,26.85
2018-11-05T09:56:02.315Z,28.17
2018-11-05T09:58:58.963Z,27.65
2018-11-05T10:01:55.925Z,28.05
2018-11-05T10:04:52.196Z,26.85
2018-11-05T10:07:50.587Z,27.37
2018-11-05T10:10:48.024Z,26.73
2018-11-05T10:13:45.932Z,26.25
2018-11-05T10:16:44.092Z,26.12
2018-11-05T10:19:43.134Z,27.62
2018-11-05T10:22:39.536Z,26.70
2018-11-05T10:25:36.128Z,27.00
2018-11-05T10:28:37.693Z,27.40
2018-11-05T10:31:32.518Z,25.75
2018-11-05T10:34:28.350Z,25.85
2018-11-05T10:37:22.258Z,26.68
2018-11-05T10:40:20.680Z,26.57
2018-11-05T10:43:15.358Z,26.15
2018-11-05T10:46:10.509Z,28.15
2018-11-05T10:49:04.780Z,29.05
2018-11-05T10:52:00.485Z,25.62
2018-11-05T10:54:54.892Z,26.60
2018-11-05T10:57:48.906Z,26.95
2018-11-05T11:00:59.105Z,27.95
2018-11-05T11:04:09.518Z,28.25
2018-11-05T11:07:07.859Z,27.62
2018-11-05T11:10:02.810Z,27.30
2018-11-05T11:12:57.781Z,26.45
2018-11-05T11:15:55.026Z,25.97
2018-11-05T11:18:51.198Z,26.48
2018-11-05T11:21:45.967Z,25.40
2018-11-05T11:24:43.537Z,26.10
2018-11-05T11:27:39.205Z,25.15
2018-11-05T11:30:33.297Z,24.77
2018-11-05T11:33:26.944Z,23.57
2018-11-05T11:36:20.814Z,24.45
2018-11-05T11:39:15.366Z,23.75
2018-11-05T11:42:09.104Z,23.45
2018-11-05T11:45:03.190Z,23.10
2018-11-05T11:47:56.330Z,24.27
2018-11-05T11:50:50.402Z,24.10
2018-11-05T11:53:44.109Z,22.65
2018-11-05T11:56:39.363Z,23.07
2018-11-05T11:59:34.717Z,24.02
2018-11-05T12:02:30.332Z,23.60
2018-11-05T12:05:30.341Z,22.50
2018-11-05T12:08:26.452Z,21.57
2018-11-05T12:11:23.689Z,22.55
2018-11-05T12:14:20.104Z,22.87
2018-11-05T12:17:15.344Z,22.27
2018-11-05T12:20:12.174Z,22.87
2018-11-05T12:23:07.699Z,24.82
2018-11-05T12:26:04.115Z,24.18
2018-11-05T12:29:01.948Z,24.98
2018-11-05T12:32:01.131Z,26.10
2018-11-05T12:34:57.278Z,27.55
2018-11-05T12:37:54.169Z,26.68
2018-11-05T12:40:49.347Z,29.05
2018-11-05T12:43:45.971Z,29.05
2018-11-05T12:46:42.438Z,30.62
2018-11-05T12:49:44.644Z,31.27
2018-11-05T12:52:35.769Z,29.48
2018-11-05T12:55:34.286Z,31.02
2018-11-05T12:58:29.763Z,30.62
2018-11-05T13:01:26.166Z,32.28
2018-11-05T13:04:24.132Z,32.35
2018-11-05T13:07:20.306Z,32.53
2018-11-05T13:10:17.594Z,34.03
2018-11-05T13:13:14.057Z,32.03
2018-11-05T13:16:10.284Z,32.38
2018-11-05T13:19:07.385Z,31.20
2018-11-05T13:22:03.297Z,31.60
2018-11-05T13:24:59.822Z,31.95
2018-11-05T13:27:55.633Z,32.60
2018-11-05T13:30:51.892Z,31.30
2018-11-05T13:33:47.858Z,32.95
2018-11-05T13:36:43.739Z,32.40
2018-11-05T13:39:40.645Z,33.55
2018-11-05T13:42:36.305Z,33.18
2018-11-05T13:45:36.093Z,32.48
2018-11-05T13:48:32.279Z,33.20
2018-11-05T13:51:27.025Z,36.58
2018-11-05T13:54:22.637Z,39.65
2018-11-05T13:57:18.013Z,47.40
2018-11-05T14:00:17.026Z,42.67
2018-11-05T14:03:13.159Z,45.05
2018-11-05T14:06:11.918Z,44.70
2018-11-05T14:09:07.761Z,44.95
2018-11-05T14:12:03.514Z,44.10
2018-11-05T14:14:58.577Z,45.67
2018-11-05T14:17:54.394Z,44.67
2018-11-05T14:20:49.591Z,43.90
2018-11-05T14:23:48.957Z,47.23
2018-11-05T14:26:44.115Z,42.55
2018-11-05T14:29:40.734Z,44.45
2018-11-05T14:32:36.386Z,43.55
2018-11-05T14:35:32.473Z,42.00
2018-11-05T14:38:28.158Z,43.42
2018-11-05T14:41:23.400Z,43.55
2018-11-05T14:44:19.316Z,44.55
2018-11-05T14:47:15.622Z,43.73
2018-11-05T14:50:12.308Z,43.73
2018-11-05T14:53:06.468Z,40.83
2018-11-05T14:56:01.571Z,42.73
2018-11-05T14:58:57.929Z,43.48
2018-11-05T15:02:11.699Z,43.75
2018-11-05T15:05:08.036Z,41.85
2018-11-05T15:08:04.109Z,41.90
2018-11-05T15:10:59.693Z,43.50
2018-11-05T15:13:56.404Z,42.55
2018-11-05T15:16:56.610Z,41.83
2018-11-05T15:19:52.886Z,42.03
2018-11-05T15:22:48.595Z,43.28
2018-11-05T15:25:48.168Z,43.17
2018-11-05T15:28:44.664Z,42.40
2018-11-05T15:31:40.379Z,42.20
2018-11-05T15:34:36.334Z,44.15
2018-11-05T15:37:32.303Z,43.48
2018-11-05T15:40:27.964Z,48.10
2018-11-05T15:43:23.515Z,51.60
2018-11-05T15:46:18.777Z,47.38
2018-11-05T15:49:14.835Z,49.40
2018-11-05T15:52:11.029Z,49.03
2018-11-05T15:55:07.699Z,51.80
2018-11-05T15:58:03.204Z,51.05
2018-11-05T16:00:59.017Z,49.00
2018-11-05T16:03:55.571Z,49.65
2018-11-05T16:06:50.855Z,51.42
2018-11-05T16:09:46.460Z,50.88
2018-11-05T16:12:42.108Z,50.90
2018-11-05T16:15:37.866Z,47.75
2018-11-05T16:18:33.556Z,50.35
2018-11-05T16:21:29.198Z,49.70
2018-11-05T16:24:25.312Z,48.83
2018-11-05T16:27:21.582Z,46.95
2018-11-05T16:30:22.347Z,47.33
2018-11-05T16:33:18.333Z,47.83
2018-11-05T16:36:14.318Z,46.92
2018-11-05T16:39:11.081Z,47.25
2018-11-05T16:42:06.333Z,50.48
2018-11-05T16:45:02.211Z,49.53
2018-11-05T16:47:57.232Z,48.38
2018-11-05T16:50:53.207Z,47.23
2018-11-05T16:53:49.160Z,45.50
2018-11-05T16:56:45.752Z,44.85
2018-11-05T16:59:41.467Z,45.73
2018-11-05T17:02:37.572Z,44.50
2018-11-05T17:05:36.139Z,43.70
2018-11-05T17:08:31.898Z,44.83
2018-11-05T17:11:30.453Z,43.63
2018-11-05T17:14:26.903Z,42.88
2018-11-05T17:17:26.189Z,42.78
2018-11-05T17:20:23.309Z,43.30
2018-11-05T17:23:19.549Z,43.65
2018-11-05T17:26:15.872Z,41.53
2018-11-05T17:29:12.246Z,40.50
2018-11-05T17:32:13.616Z,42.10
2018-11-05T17:35:05.699Z,43.02
2018-11-05T17:38:02.071Z,42.53
2018-11-05T17:40:58.978Z,41.45
2018-11-05T17:43:55.412Z,41.55
2018-11-05T17:46:51.385Z,40.78
2018-11-05T17:49:47.106Z,42.40
2018-11-05T17:52:44.901Z,41.23
2018-11-05T17:55:40.869Z,40.83
2018-11-05T17:58:37.328Z,39.95
2018-11-05T18:01:33.634Z,39.88
2018-11-05T18:04:31.024Z,40.43
2018-11-05T18:07:28.491Z,40.00
2018-11-05T18:10:25.030Z,40.52
2018-11-05T18:13:24.683Z,42.17
2018-11-05T18:16:22.509Z,40.78
2018-11-05T18:19:19.464Z,40.78
2018-11-05T18:22:16.701Z,41.45
2018-11-05T18:25:20.610Z,42.60
2018-11-05T18:28:16.328Z,41.05
2018-11-05T18:31:12.699Z,40.50
2018-11-05T18:34:08.493Z,40.98
2018-11-05T18:37:04.003Z,40.33
2018-11-05T18:40:00.306Z,40.05
2018-11-05T18:42:56.422Z,39.20
2018-11-05T18:45:51.870Z,40.50
2018-11-05T18:48:57.388Z,38.92
2018-11-05T18:51:42.862Z,37.50
2018-11-05T18:54:38.313Z,37.90
2018-11-05T18:57:34.318Z,40.30
2018-11-05T19:00:32.672Z,38.92
2018-11-05T19:03:28.248Z,37.67
2018-11-05T19:06:23.631Z,38.02
2018-11-05T19:09:41.263Z,38.75
2018-11-05T19:12:32.599Z,38.33
2018-11-05T19:15:28.102Z,38.55
2018-11-05T19:18:23.408Z,38.08
2018-11-05T19:21:19.433Z,39.13
2018-11-05T19:24:15.172Z,37.58
2018-11-05T19:27:11.264Z,37.50
2018-11-05T19:30:06.530Z,37.80
2018-11-05T19:33:02.529Z,38.45
2018-11-05T19:35:57.869Z,38.58
2018-11-05T19:38:53.617Z,37.58
2018-11-05T19:41:48.744Z,37.83
2018-11-05T19:44:44.277Z,37.40
2018-11-05T19:47:39.259Z,38.90
2018-11-05T19:50:35.217Z,37.15
2018-11-05T19:53:30.865Z,35.80
2018-11-05T19:56:26.983Z,38.15
2018-11-05T19:59:22.359Z,36.58
2018-11-05T20:02:18.124Z,36.00
2018-11-05T20:05:13.929Z,35.55
2018-11-05T20:08:09.927Z,37.33
2018-11-05T20:11:05.179Z,36.90
2018-11-05T20:14:01.353Z,35.90
2018-11-05T20:16:57.092Z,35.10
2018-11-05T20:19:52.698Z,36.10
2018-11-05T20:22:48.008Z,36.42
2018-11-05T20:25:43.475Z,35.28
2018-11-05T20:28:42.113Z,34.85
2018-11-05T20:31:38.349Z,37.00
2018-11-05T20:34:37.064Z,35.35
2018-11-05T20:37:32.519Z,34.95
2018-11-05T20:40:28.447Z,35.92
2018-11-05T20:43:23.704Z,34.63
2018-11-05T20:46:19.284Z,34.50
2018-11-05T20:49:14.880Z,34.92
2018-11-05T20:52:10.356Z,34.73
2018-11-05T20:55:05.213Z,34.80
2018-11-05T20:57:59.658Z,34.53
2018-11-05T21:00:54.793Z,34.58
2018-11-05T21:03:50.723Z,36.55
2018-11-05T21:06:47.392Z,34.25
2018-11-05T21:09:43.084Z,35.92
2018-11-05T21:12:39.080Z,35.17
2018-11-05T21:15:34.548Z,34.30
2018-11-05T21:18:30.782Z,34.88
2018-11-05T21:21:26.654Z,34.18
2018-11-05T21:24:22.766Z,33.80
2018-11-05T21:27:19.088Z,34.18
2018-11-05T21:30:16.409Z,35.00
2018-11-05T21:33:11.932Z,34.98
2018-11-05T21:36:06.913Z,33.40
2018-11-05T21:39:01.915Z,33.60
2018-11-05T21:41:56.264Z,34.13
2018-11-05T21:44:51.400Z,34.45
2018-11-05T21:47:47.469Z,33.98
2018-11-05T21:50:42.338Z,34.00
2018-11-05T21:53:36.882Z,33.95
2018-11-05T21:56:31.936Z,33.75
2018-11-05T21:59:28.176Z,33.33
2018-11-05T22:02:23.866Z,32.63
2018-11-05T22:05:20.343Z,32.45
2018-11-05T22:08:18.939Z,33.75
2018-11-05T22:11:14.987Z,32.98
2018-11-05T22:14:10.749Z,32.85
2018-11-05T22:17:06.880Z,33.42
2018-11-05T22:20:02.563Z,33.35
2018-11-05T22:22:58.403Z,34.75
2018-11-05T22:25:53.971Z,34.27
2018-11-05T22:28:50.320Z,33.15
2018-11-05T22:31:48.774Z,34.15
2018-11-05T22:34:44.871Z,34.10
2018-11-05T22:37:41.175Z,33.78
2018-11-05T22:40:37.429Z,34.50
2018-11-05T22:43:33.267Z,33.83
2018-11-05T22:46:32.846Z,33.08
2018-11-05T22:49:28.113Z,32.38
2018-11-05T22:52:23.585Z,33.65
2018-11-05T22:55:19.490Z,32.40
2018-11-05T22:58:15.156Z,33.70
2018-11-05T23:01:12.381Z,32.95
2018-11-05T23:04:08.315Z,32.05
2018-11-05T23:07:04.659Z,33.30
2018-11-05T23:10:00.900Z,31.62
2018-11-05T23:12:57.478Z,33.60
2018-11-05T23:15:53.697Z,32.50
2018-11-05T23:18:49.442Z,32.53
2018-11-05T23:21:45.776Z,33.53
2018-11-05T23:24:41.336Z,32.50
2018-11-05T23:27:38.885Z,32.73
2018-11-05T23:30:34.053Z,32.25
2018-11-05T23:33:28.271Z,32.73
2018-11-05T23:36:22.310Z,32.40
2018-11-05T23:39:16.533Z,32.98
2018-11-05T23:42:10.455Z,32.30
2018-11-05T23:45:04.918Z,32.48
2018-11-05T23:47:58.824Z,31.62
2018-11-05T23:50:54.216Z,32.70
2018-11-05T23:53:48.288Z,32.03
2018-11-05T23:56:43.481Z,32.45
2018-11-05T23:59:39.303Z,30.88
